Weather History for KCVX - November, 2013

Change the Weather History Date:

Saturday, November 30, 2013

  Actual Average Record
Temperature  
Mean Temperature 31 °F -  
Max Temperature 37 °F 47 °F - (-1)
Min Temperature 25 °F 32 °F - (-1)
Degree Days  
Heating Degree Days 34    
Moisture  
Dew Point 27 °F    
Average Humidity 78    
Maximum Humidity 87    
Minimum Humidity 69    
Precipitation  
Precipitation 0.00 in - - ()
Sea Level Pressure  
Sea Level Pressure 30.18 in    
Wind  
Wind Speed 8 mph (South)    
Max Wind Speed 14 mph    
Max Gust Speed 21 mph    
Visibility 9 miles    
Events      
Averages and records for this station are not official NWS values.
T = Trace of Precipitation, MM = Missing Value Source: NWS Daily Summary

Daily Weather History Graph

Daily Weather History Graph

Search for Another Location

Airport or City:

Trip Planner

Search our weather history database for the weather conditions in past years. The results will help you decide how hot, cold, wet, or windy it might be!

Date:

Astronomy

Nov. 30, 2013 Rise Set
Actual Time 7:59 AM EST 5:00 PM EST
Civil Twilight 7:25 AM EST 5:33 PM EST
Nautical Twilight 6:49 AM EST 6:10 PM EST
Astronomical Twilight 6:13 AM EST 6:45 PM EST
Moon 5:03 AM EST (11/30) 3:29 PM EST (11/30)
Length of Visible Light 10h 07m
Length of Day
9h 01m
Waning Crescent, 7% of the Moon is Illuminated
Nov 30
Waning Crescent
Dec 2
New
Dec 9
First Quarter
Dec 17
Full
Dec 25
Last Quarter

Hourly Weather History & Observations

Time (EST) Temp. Windchill Dew Point Humidity Pressure Visibility Wind Dir Wind Speed Gust Speed Precip Events Conditions
12:15 AM 26.6 °F 18.2 °F 18.9 °F 73% 30.46 in 10.0 mi SE 8.1 mph - N/A   Clear
12:35 AM 26.2 °F 18.6 °F 18.9 °F 74% 30.45 in 10.0 mi SE 6.9 mph - N/A   Scattered Clouds
12:55 AM 25.7 °F 19.0 °F 18.5 °F 74% 30.44 in 10.0 mi SE 5.8 mph - N/A   Clear
1:15 AM 25.7 °F 19.0 °F 18.3 °F 74% 30.44 in 10.0 mi SE 5.8 mph - N/A   Clear
1:35 AM 25.7 °F 19.0 °F 18.5 °F 74% 30.43 in 10.0 mi SE 5.8 mph - N/A   Mostly Cloudy
1:55 AM 26.2 °F 19.6 °F 18.5 °F 73% 30.42 in 10.0 mi SE 5.8 mph - N/A   Overcast
2:15 AM 26.4 °F 19.8 °F 18.7 °F 73% 30.41 in 10.0 mi SSE 5.8 mph - N/A   Overcast
2:34 AM 27.1 °F 18.2 °F 18.9 °F 71% 30.41 in 10.0 mi SSE 9.2 mph - N/A   Overcast
2:55 AM 27.9 °F 18.4 °F 19.0 °F 69% 30.40 in 10.0 mi South 10.4 mph 16.1 mph N/A   Overcast
3:15 AM 27.7 °F 18.8 °F 19.2 °F 71% 30.39 in 10.0 mi SSE 9.2 mph - N/A   Overcast
3:34 AM 27.7 °F 17.6 °F 19.4 °F 71% 30.37 in 10.0 mi SSE 11.5 mph 18.4 mph N/A   Overcast
3:55 AM 27.5 °F 17.4 °F 19.2 °F 71% 30.36 in 10.0 mi SSE 11.5 mph 17.3 mph N/A   Overcast
4:15 AM 27.5 °F 16.3 °F 19.2 °F 71% 30.35 in 10.0 mi SSE 13.8 mph 19.6 mph N/A   Overcast
4:34 AM 27.7 °F 17.6 °F 19.4 °F 71% 30.34 in 10.0 mi SSE 11.5 mph 16.1 mph N/A   Overcast
4:55 AM 27.9 °F 17.8 °F 19.6 °F 71% 30.32 in 10.0 mi SSE 11.5 mph - N/A   Overcast
5:14 AM 28.0 °F 18.6 °F 19.9 °F 72% 30.31 in 10.0 mi SSE 10.4 mph 18.4 mph N/A   Overcast
5:35 AM 28.4 °F 19.1 °F 20.3 °F 72% 30.30 in 10.0 mi South 10.4 mph 19.6 mph N/A   Overcast
5:55 AM 28.4 °F 17.5 °F 20.5 °F 72% 30.29 in 10.0 mi South 13.8 mph 18.4 mph N/A   Overcast
6:14 AM 28.8 °F 19.5 °F 20.8 °F 72% 30.27 in 10.0 mi South 10.4 mph - N/A   Overcast
6:35 AM 28.9 °F 19.8 °F 21.2 °F 73% 30.26 in 10.0 mi SSE 10.4 mph 18.4 mph N/A   Overcast
6:55 AM 29.1 °F 18.9 °F 21.4 °F 73% 30.25 in 10.0 mi South 12.7 mph - N/A   Overcast
7:14 AM 29.1 °F 18.9 °F 21.6 °F 73% 30.24 in 10.0 mi South 12.7 mph 18.4 mph N/A   Overcast
7:35 AM 29.3 °F 18.6 °F 21.7 °F 73% 30.24 in 10.0 mi South 13.8 mph 20.7 mph N/A   Overcast
7:55 AM 29.3 °F 19.1 °F 22.1 °F 75% 30.23 in 10.0 mi South 12.7 mph 16.1 mph N/A   Mostly Cloudy
8:14 AM 29.7 °F 20.7 °F 22.6 °F 75% 30.22 in 10.0 mi South 10.4 mph 17.3 mph N/A   Overcast
8:35 AM 29.8 °F 20.3 °F 23.0 °F 76% 30.22 in 10.0 mi South 11.5 mph 16.1 mph N/A   Scattered Clouds
8:54 AM 30.0 °F 21.7 °F 23.4 °F 76% 30.21 in 10.0 mi South 9.2 mph - N/A   Clear
9:15 AM 30.4 °F 21.5 °F 23.9 °F 77% 30.19 in 10.0 mi South 10.4 mph - N/A   Scattered Clouds
9:35 AM 31.1 °F 23.1 °F 24.6 °F 77% 30.18 in 7.0 mi South 9.2 mph - N/A   Mostly Cloudy
9:54 AM 31.6 °F 23.7 °F 25.2 °F 77% 30.17 in 10.0 mi South 9.2 mph 17.3 mph N/A   Scattered Clouds
10:15 AM 32.0 °F 23.0 °F 25.7 °F 78% 30.16 in 7.0 mi South 11.5 mph 18.4 mph N/A   Mostly Cloudy
10:35 AM 32.0 °F 23.0 °F 25.9 °F 78% 30.15 in 7.0 mi South 11.5 mph - N/A   Overcast
10:54 AM 32.9 °F 25.9 °F 26.4 °F 77% 30.15 in 7.0 mi South 8.1 mph 17.3 mph N/A   Overcast
11:15 AM 33.8 °F 26.4 °F 27.1 °F 77% 30.14 in 10.0 mi South 9.2 mph 18.4 mph N/A   Overcast
11:35 AM 34.2 °F 25.2 °F 27.5 °F 77% 30.14 in 10.0 mi SSW 12.7 mph 18.4 mph N/A   Overcast
11:54 AM 34.5 °F 26.7 °F 28.0 °F 77% 30.13 in 10.0 mi SSW 10.4 mph - N/A   Overcast
12:15 PM 34.9 °F 26.2 °F 28.9 °F 79% 30.12 in 7.0 mi SSW 12.7 mph 17.3 mph N/A   Overcast
12:35 PM 35.2 °F 28.1 °F 29.3 °F 79% 30.10 in 7.0 mi SSW 9.2 mph 17.3 mph N/A   Overcast
12:54 PM 35.6 °F 30.7 °F 29.8 °F 80% 30.10 in 7.0 mi South 5.8 mph - N/A   Overcast
1:15 PM 35.6 °F 29.2 °F 30.2 °F 81% 30.09 in 7.0 mi South 8.1 mph - N/A   Overcast
1:35 PM 36.0 °F 29.6 °F 30.2 °F 80% 30.07 in 7.0 mi South 8.1 mph - N/A   Overcast
1:54 PM 36.7 °F 32.0 °F 30.9 °F 80% 30.07 in 7.0 mi SSW 5.8 mph - N/A   Overcast
2:15 PM 37.4 °F 30.3 °F 31.6 °F 80% 30.06 in 10.0 mi South 10.4 mph - N/A   Overcast
2:35 PM 37.6 °F 31.6 °F 31.8 °F 80% 30.05 in 10.0 mi SSW 8.1 mph - N/A   Overcast
2:55 PM 37.6 °F 31.6 °F 32.0 °F 80% 30.05 in 10.0 mi South 8.1 mph - N/A   Overcast
3:15 PM 37.6 °F 33.1 °F 32.0 °F 80% 30.04 in 10.0 mi South 5.8 mph - N/A   Overcast
3:34 PM 37.6 °F 35.1 °F 32.0 °F 80% 30.04 in 10.0 mi South 3.5 mph - N/A   Overcast
3:55 PM 37.6 °F - 32.0 °F 80% 30.04 in 10.0 mi Calm Calm - N/A   Overcast
4:15 PM 37.8 °F 35.3 °F 32.0 °F 80% 30.04 in 10.0 mi South 3.5 mph - N/A   Overcast
4:34 PM 36.3 °F 33.7 °F 31.1 °F 81% 30.04 in 10.0 mi SSE 3.5 mph - N/A   Overcast
4:55 PM 35.8 °F 31.9 °F 31.1 °F 83% 30.05 in 10.0 mi SSE 4.6 mph - N/A   Overcast
5:15 PM 36.0 °F 32.1 °F 31.1 °F 82% 30.05 in 10.0 mi South 4.6 mph - N/A   Overcast
5:34 PM 36.0 °F 33.3 °F 31.3 °F 83% 30.05 in 10.0 mi South 3.5 mph - N/A   Overcast
5:55 PM 36.1 °F 33.5 °F 31.3 °F 83% 30.05 in 10.0 mi South 3.5 mph - N/A   Overcast
6:15 PM 36.0 °F - 31.3 °F 83% 30.05 in 10.0 mi Calm Calm - N/A   Overcast
6:34 PM 37.0 °F 32.4 °F 32.2 °F 83% 30.05 in 10.0 mi WNW 5.8 mph - N/A   Overcast
6:55 PM 37.6 °F 34.0 °F 32.0 °F 80% 30.05 in 10.0 mi West 4.6 mph - N/A   Overcast
7:15 PM 37.8 °F 32.5 °F 32.0 °F 80% 30.06 in 7.0 mi NW 6.9 mph - N/A   Overcast
7:35 PM 37.6 °F 33.1 °F 32.0 °F 80% 30.06 in 7.0 mi NW 5.8 mph - N/A   Overcast
7:55 PM 37.4 °F 32.1 °F 32.0 °F 81% 30.06 in 7.0 mi NW 6.9 mph - N/A   Overcast
8:15 PM 37.4 °F 32.1 °F 32.7 °F 83% 30.07 in 7.0 mi North 6.9 mph - N/A   Overcast
8:35 PM 36.5 °F 30.3 °F 32.4 °F 85% 30.07 in 7.0 mi NNW 8.1 mph - N/A   Overcast
8:55 PM 36.0 °F 32.1 °F 32.0 °F 86% 30.06 in 7.0 mi NNW 4.6 mph - N/A   Overcast
9:14 PM 36.1 °F 31.4 °F 32.0 °F 85% 30.06 in 7.0 mi North 5.8 mph - N/A   Overcast
9:35 PM 35.6 °F 28.6 °F 32.0 °F 87% 30.06 in 7.0 mi NNE 9.2 mph - N/A   Overcast
9:55 PM 35.6 °F 29.9 °F 32.0 °F 87% 30.06 in 5.0 mi North 6.9 mph - N/A   Overcast
10:14 PM 35.4 °F 29.7 °F 31.8 °F 87% 30.06 in 7.0 mi North 6.9 mph - N/A   Overcast
10:35 PM 35.6 °F 30.7 °F 31.8 °F 86% 30.06 in 7.0 mi North 5.8 mph - N/A   Overcast
10:54 PM 35.2 °F 30.3 °F 31.5 °F 86% 30.06 in 7.0 mi North 5.8 mph - N/A   Overcast
11:15 PM 35.2 °F 29.5 °F 31.6 °F 87% 30.06 in 7.0 mi North 6.9 mph - N/A   Overcast
11:35 PM 35.1 °F 31.0 °F 31.6 °F 87% 30.07 in 7.0 mi NNE 4.6 mph - N/A   Overcast
11:54 PM 34.9 °F 30.8 °F 31.5 °F 87% 30.06 in 7.0 mi NE 4.6 mph - N/A   Overcast